Huvudsida
METAR-TAF:

METAR-TAF

Flygplatser :

RAF Brize Norton

Brize Norton, England

latitud: 51-45N, longitud: 001-35W, höjd: 88 m

Aktuellt väderrapport

Denna rapport gjordes för 19 minuter sedan, klockan 22:50 UTC
Vind 8 kt från ost/nordost
Temperatur 15°C
Fuktighet 72%
Tryck 1035 hPa
Sikt 10 km eller mer
Inga moln under 1 500 m eller inga cumulonimbus

METAR: EGVN 272250Z 06008KT CAVOK 15/10 Q1035 NOSIG

Tid: 00:09 (23:09 UTC)

Väderprognos

Denna rapport gjordes för 3 timmar och 39 minuter sedan, klockan 19:30 UTC
Prognos gäller från 27 kl. 21 UTC till 28 kl. 21 UTC
Vind 6 kt från ost/nordost
Sikt 10 km eller mer
Inga moln under 1 500 m eller inga cumulonimbus

TAF: EGVN 271930Z 2721/2821 06006KT CAVOK

Aktuella väderrapporter och prognoser från 4000 flygplatser (METAR- och TAF-rapporter).

De tillgängliga stationerna syns som gula och röda prickar på kartan.

För musen över prickarna för att se namnen på stationerna.

Klicka sedan för att få väderrapporter och prognoser.

För att ändra kartan: Klicka på de gröna knapparna med ett svart kors på för att zooma in; den gröna knappen med ett streck på för att zooma ut; eller på de gröna pilarna för angränsande kartor.


METAR-TAF: